createdAt,value
2018-09-06T00:00:49.334Z,25.40
2018-09-06T00:03:23.542Z,24.57
2018-09-06T00:05:57.816Z,24.80
2018-09-06T00:08:32.143Z,24.77
2018-09-06T00:11:06.527Z,24.43
2018-09-06T00:13:40.732Z,24.53
2018-09-06T00:16:15.304Z,25.30
2018-09-06T00:18:51.272Z,23.70
2018-09-06T00:21:25.719Z,24.17
2018-09-06T00:24:00.187Z,25.47
2018-09-06T00:26:34.456Z,22.60
2018-09-06T00:29:08.705Z,23.13
2018-09-06T00:31:43.020Z,23.27
2018-09-06T00:34:17.244Z,24.00
2018-09-06T00:36:51.576Z,23.50
2018-09-06T00:39:25.806Z,24.47
2018-09-06T00:42:00.108Z,25.03
2018-09-06T00:44:34.640Z,23.77
2018-09-06T00:47:08.975Z,24.63
2018-09-06T00:49:43.511Z,24.80
2018-09-06T00:52:17.849Z,27.50
2018-09-06T00:54:52.773Z,26.53
2018-09-06T00:57:27.008Z,27.30
2018-09-06T01:00:01.383Z,28.43
2018-09-06T01:02:35.732Z,26.40
2018-09-06T01:05:10.146Z,26.37
2018-09-06T01:07:44.343Z,24.63
2018-09-06T01:10:19.277Z,24.73
2018-09-06T01:12:53.736Z,26.83
2018-09-06T01:15:28.373Z,25.47
2018-09-06T01:18:02.726Z,24.10
2018-09-06T01:20:37.180Z,25.57
2018-09-06T01:23:11.397Z,25.17
2018-09-06T01:25:47.838Z,25.90
2018-09-06T01:28:22.078Z,27.97
2018-09-06T01:30:56.565Z,27.30
2018-09-06T01:33:31.474Z,31.73
2018-09-06T01:36:11.247Z,29.23
2018-09-06T01:38:45.566Z,31.90
2018-09-06T01:41:19.946Z,29.77
2018-09-06T01:43:54.158Z,29.47
2018-09-06T01:46:28.390Z,29.47
2018-09-06T01:49:02.844Z,28.73
2018-09-06T01:51:37.121Z,28.33
2018-09-06T01:54:11.487Z,29.03
2018-09-06T01:56:45.691Z,29.20
2018-09-06T01:59:19.951Z,29.83
2018-09-06T02:01:54.212Z,31.60
2018-09-06T02:04:28.471Z,31.13
2018-09-06T02:07:02.848Z,31.03
2018-09-06T02:09:37.183Z,30.40
2018-09-06T02:12:11.675Z,30.40
2018-09-06T02:14:45.944Z,29.23
2018-09-06T02:17:20.216Z,29.37
2018-09-06T02:19:54.461Z,30.00
2018-09-06T02:22:28.818Z,29.43
2018-09-06T02:25:03.671Z,30.57
2018-09-06T02:27:38.298Z,30.70
2018-09-06T02:30:12.703Z,31.43
2018-09-06T02:32:46.967Z,29.70
2018-09-06T02:35:21.426Z,31.43
2018-09-06T02:37:55.865Z,31.63
2018-09-06T02:40:36.974Z,31.43
2018-09-06T02:43:12.590Z,30.47
2018-09-06T02:45:47.031Z,32.80
2018-09-06T02:48:25.650Z,28.70
2018-09-06T02:51:05.380Z,30.77
2018-09-06T02:53:39.981Z,32.30
2018-09-06T02:56:15.235Z,29.63
2018-09-06T02:58:49.510Z,32.10
2018-09-06T03:01:23.834Z,33.37
2018-09-06T03:03:58.099Z,31.43
2018-09-06T03:06:32.551Z,31.37
2018-09-06T03:09:07.789Z,31.60
2018-09-06T03:11:47.340Z,28.47
2018-09-06T03:14:21.580Z,32.43
2018-09-06T03:16:55.846Z,33.23
2018-09-06T03:19:30.228Z,33.43
2018-09-06T03:22:04.386Z,32.80
2018-09-06T03:24:38.712Z,32.77
2018-09-06T03:27:13.117Z,33.90
2018-09-06T03:29:47.339Z,34.20
2018-09-06T03:32:21.642Z,36.47
2018-09-06T03:34:55.914Z,34.70
2018-09-06T03:37:30.271Z,33.30
2018-09-06T03:40:05.341Z,33.37
2018-09-06T03:42:39.612Z,34.00
2018-09-06T03:45:13.832Z,33.33
2018-09-06T03:47:48.239Z,31.03
2018-09-06T03:50:22.629Z,32.80
2018-09-06T03:52:56.989Z,34.20
2018-09-06T03:55:31.389Z,34.03
2018-09-06T03:58:05.645Z,34.53
2018-09-06T04:00:39.883Z,34.07
2018-09-06T04:03:14.213Z,33.17
2018-09-06T04:05:48.540Z,32.00
2018-09-06T04:08:22.885Z,30.80
2018-09-06T04:10:57.260Z,30.67
2018-09-06T04:13:31.618Z,30.97
2018-09-06T04:16:06.028Z,30.70
2018-09-06T04:18:40.409Z,30.43
2018-09-06T04:21:14.931Z,30.80
2018-09-06T04:23:49.319Z,29.50
2018-09-06T04:26:23.710Z,31.23
2018-09-06T04:28:57.997Z,31.70
2018-09-06T04:31:32.396Z,30.03
2018-09-06T04:34:06.927Z,31.47
2018-09-06T04:36:41.241Z,30.83
2018-09-06T04:39:15.480Z,30.73
2018-09-06T04:41:51.156Z,31.90
2018-09-06T04:44:25.636Z,30.70
2018-09-06T04:46:59.904Z,30.13
2018-09-06T04:49:34.218Z,31.10
2018-09-06T04:52:08.448Z,32.13
2018-09-06T04:54:42.841Z,32.10
2018-09-06T04:57:17.607Z,32.07
2018-09-06T04:59:52.009Z,32.73
2018-09-06T05:02:26.427Z,31.23
2018-09-06T05:05:00.673Z,31.23
2018-09-06T05:07:34.997Z,29.70
2018-09-06T05:10:09.431Z,30.80
2018-09-06T05:12:43.780Z,31.37
2018-09-06T05:15:18.083Z,30.27
2018-09-06T05:17:52.344Z,30.60
2018-09-06T05:20:26.767Z,30.47
2018-09-06T05:23:01.202Z,33.27
2018-09-06T05:25:35.769Z,33.27
2018-09-06T05:28:10.144Z,32.63
2018-09-06T05:30:44.411Z,33.30
2018-09-06T05:33:18.781Z,33.37
2018-09-06T05:35:53.158Z,33.10
2018-09-06T05:38:27.552Z,34.43
2018-09-06T05:41:01.951Z,34.53
2018-09-06T05:43:36.242Z,33.53
2018-09-06T05:46:10.980Z,33.93
2018-09-06T05:48:45.436Z,34.20
2018-09-06T05:51:19.790Z,34.47
2018-09-06T05:53:55.154Z,32.27
2018-09-06T05:56:29.519Z,31.90
2018-09-06T05:59:03.889Z,33.17
2018-09-06T06:01:38.419Z,32.57
2018-09-06T06:04:12.736Z,32.00
2018-09-06T06:06:47.068Z,31.60
2018-09-06T06:09:21.319Z,31.27
2018-09-06T06:11:55.709Z,31.00
2018-09-06T06:14:29.937Z,30.87
2018-09-06T06:17:04.222Z,32.33
2018-09-06T06:19:39.528Z,30.43
2018-09-06T06:22:14.028Z,30.17
2018-09-06T06:24:48.250Z,28.70
2018-09-06T06:27:22.557Z,30.93
2018-09-06T06:29:56.965Z,29.27
2018-09-06T06:32:31.438Z,30.67
2018-09-06T06:35:05.852Z,29.73
2018-09-06T06:37:40.085Z,30.47
2018-09-06T06:40:14.367Z,31.83
2018-09-06T06:42:48.735Z,31.30
2018-09-06T06:45:23.093Z,29.77
2018-09-06T06:47:57.441Z,29.53
2018-09-06T06:50:31.890Z,29.60
2018-09-06T06:53:06.066Z,28.47
2018-09-06T06:55:40.368Z,30.10
2018-09-06T06:58:14.597Z,28.17
2018-09-06T07:00:49.948Z,29.40
2018-09-06T07:03:24.180Z,28.73
2018-09-06T07:05:58.585Z,29.20
2018-09-06T07:08:33.309Z,27.93
2018-09-06T07:11:07.616Z,27.83
2018-09-06T07:13:41.908Z,29.20
2018-09-06T07:16:16.918Z,28.10
2018-09-06T07:18:51.633Z,29.30
2018-09-06T07:21:26.291Z,28.57
2018-09-06T07:24:00.685Z,27.70
2018-09-06T07:26:35.020Z,27.30
2018-09-06T07:29:09.338Z,26.27
2018-09-06T07:31:43.750Z,26.10
2018-09-06T07:34:18.159Z,28.50
2018-09-06T07:36:52.515Z,27.40
2018-09-06T07:39:26.746Z,27.17
2018-09-06T07:42:01.070Z,25.03
2018-09-06T07:44:35.324Z,23.77
2018-09-06T07:47:09.675Z,24.50
2018-09-06T07:49:44.425Z,25.23
2018-09-06T07:52:18.793Z,23.53
2018-09-06T07:54:53.226Z,23.47
2018-09-06T07:57:28.423Z,23.40
2018-09-06T08:00:02.802Z,23.00
2018-09-06T08:02:37.254Z,21.43
2018-09-06T08:05:12.266Z,22.00
2018-09-06T08:07:46.558Z,23.20
2018-09-06T08:10:20.872Z,20.30
2018-09-06T08:12:55.479Z,20.23
2018-09-06T08:15:29.747Z,21.03
2018-09-06T08:18:04.230Z,20.97
2018-09-06T08:20:38.537Z,22.67
2018-09-06T08:23:13.608Z,21.80
2018-09-06T08:25:48.044Z,21.77
2018-09-06T08:28:22.425Z,21.07
2018-09-06T08:30:56.937Z,21.77
2018-09-06T08:33:31.431Z,21.20
2018-09-06T08:36:05.700Z,20.77
2018-09-06T08:38:40.090Z,20.83
2018-09-06T08:41:14.516Z,20.93
2018-09-06T08:43:48.987Z,19.93
2018-09-06T08:46:23.360Z,20.77
2018-09-06T08:48:57.760Z,19.67
2018-09-06T08:51:32.406Z,20.20
2018-09-06T08:54:08.374Z,21.20
2018-09-06T08:56:42.773Z,18.80
2018-09-06T08:59:17.140Z,19.60
2018-09-06T09:01:51.723Z,19.60
2018-09-06T09:04:26.002Z,18.60
2018-09-06T09:07:00.245Z,18.67
2018-09-06T09:09:34.633Z,18.53
2018-09-06T09:12:09.148Z,19.13
2018-09-06T09:14:43.643Z,18.13
2018-09-06T09:17:18.880Z,18.53
2018-09-06T09:19:53.238Z,18.33
2018-09-06T09:22:27.685Z,18.40
2018-09-06T09:25:01.980Z,18.23
2018-09-06T09:27:36.297Z,17.97
2018-09-06T09:30:10.565Z,18.33
2018-09-06T09:32:45.339Z,18.07
2018-09-06T09:35:19.802Z,18.13
2018-09-06T09:37:54.361Z,16.63
2018-09-06T09:40:28.594Z,17.17
2018-09-06T09:43:02.854Z,17.20
2018-09-06T09:45:37.195Z,17.07
2018-09-06T09:48:11.590Z,17.73
2018-09-06T09:53:19.679Z,16.37
2018-09-06T09:55:53.961Z,17.43
2018-09-06T09:58:28.335Z,16.53
2018-09-06T10:01:02.707Z,15.43
2018-09-06T10:03:42.296Z,17.40
2018-09-06T10:06:22.428Z,16.33
2018-09-06T10:09:02.705Z,15.40
2018-09-06T10:11:37.188Z,16.63
2018-09-06T10:14:11.701Z,16.00
2018-09-06T10:16:46.575Z,15.00
2018-09-06T10:19:21.097Z,12.93
2018-09-06T10:21:55.542Z,13.27
2018-09-06T10:24:29.933Z,12.33
2018-09-06T10:27:04.387Z,12.47
2018-09-06T10:29:38.769Z,11.50
2018-09-06T10:32:13.099Z,11.50
2018-09-06T10:34:47.469Z,12.03
2018-09-06T10:37:22.012Z,12.77
2018-09-06T10:39:56.668Z,10.90
2018-09-06T10:42:31.305Z,10.73
2018-09-06T10:45:05.724Z,10.03
2018-09-06T10:47:40.118Z,9.90
2018-09-06T10:50:14.470Z,10.53
2018-09-06T10:52:48.986Z,10.40
2018-09-06T10:55:23.252Z,10.63
2018-09-06T10:57:57.852Z,10.73
2018-09-06T11:00:32.321Z,10.33
2018-09-06T11:03:08.049Z,10.33
2018-09-06T11:05:42.463Z,9.63
2018-09-06T11:08:16.981Z,8.53
2018-09-06T11:10:51.596Z,8.73
2018-09-06T11:13:25.999Z,8.43
2018-09-06T11:16:00.457Z,8.00
2018-09-06T11:18:34.959Z,8.27
2018-09-06T11:21:09.557Z,8.53
2018-09-06T11:23:43.772Z,9.17
2018-09-06T11:26:18.066Z,8.77
2018-09-06T11:28:52.840Z,8.00
2018-09-06T11:31:27.540Z,9.07
2018-09-06T11:34:02.152Z,8.20
2018-09-06T11:36:36.891Z,8.90
2018-09-06T11:39:11.517Z,9.53
2018-09-06T11:41:45.935Z,9.23
2018-09-06T11:44:20.354Z,9.10
2018-09-06T11:46:54.860Z,8.97
2018-09-06T11:49:29.142Z,8.77
2018-09-06T11:52:03.543Z,9.10
2018-09-06T11:54:37.985Z,9.03
2018-09-06T11:57:12.204Z,8.00
2018-09-06T11:59:46.565Z,8.57
2018-09-06T12:02:20.907Z,9.30
2018-09-06T12:04:56.638Z,8.50
2018-09-06T12:07:31.017Z,9.10
2018-09-06T12:10:05.661Z,9.10
2018-09-06T12:12:40.135Z,8.63
2018-09-06T12:15:14.891Z,9.47
2018-09-06T12:17:49.249Z,9.07
2018-09-06T12:20:23.690Z,8.97
2018-09-06T12:22:58.125Z,9.43
2018-09-06T12:25:32.517Z,9.23
2018-09-06T12:28:06.963Z,9.03
2018-09-06T12:30:41.305Z,8.97
2018-09-06T12:33:15.628Z,9.93
2018-09-06T12:35:51.451Z,9.33
2018-09-06T12:38:25.724Z,9.27
2018-09-06T12:40:59.998Z,9.10
2018-09-06T12:43:34.683Z,8.87
2018-09-06T12:46:08.938Z,8.77
2018-09-06T12:48:43.371Z,8.70
2018-09-06T12:51:17.735Z,8.93
2018-09-06T12:53:52.140Z,8.13
2018-09-06T12:56:26.537Z,8.60
2018-09-06T12:59:00.741Z,8.83
2018-09-06T13:01:36.918Z,9.17
2018-09-06T13:04:11.331Z,8.20
2018-09-06T13:06:45.701Z,8.13
2018-09-06T13:09:20.029Z,8.67
2018-09-06T13:11:54.415Z,8.73
2018-09-06T13:14:28.685Z,8.97
2018-09-06T13:17:02.974Z,8.23
2018-09-06T13:19:37.202Z,8.43
2018-09-06T13:22:11.604Z,7.77
2018-09-06T13:24:46.655Z,8.43
2018-09-06T13:27:21.193Z,8.03
2018-09-06T13:29:55.586Z,7.07
2018-09-06T13:32:29.842Z,6.40
2018-09-06T13:35:04.467Z,6.93
2018-09-06T13:37:38.722Z,7.17
2018-09-06T13:40:13.174Z,7.07
2018-09-06T13:42:47.518Z,6.90
2018-09-06T13:45:21.790Z,6.87
2018-09-06T13:47:56.067Z,7.13
2018-09-06T13:50:30.317Z,6.83
2018-09-06T13:53:04.555Z,6.53
2018-09-06T13:55:38.946Z,6.73
2018-09-06T13:58:13.286Z,6.47
2018-09-06T14:00:47.600Z,6.43
2018-09-06T14:03:21.896Z,6.53
2018-09-06T14:05:56.284Z,5.83
2018-09-06T14:08:30.531Z,5.77
2018-09-06T14:11:04.908Z,5.43
2018-09-06T14:13:39.279Z,5.60
2018-09-06T14:16:13.758Z,8.00
2018-09-06T14:18:48.139Z,7.80
2018-09-06T14:21:23.674Z,8.53
2018-09-06T14:23:58.121Z,7.63
2018-09-06T14:26:32.461Z,8.97
2018-09-06T14:29:06.876Z,8.97
2018-09-06T14:31:41.238Z,8.10
2018-09-06T14:34:15.562Z,8.50
2018-09-06T14:36:49.955Z,8.43
2018-09-06T14:39:24.348Z,8.33
2018-09-06T14:41:58.690Z,8.07
2018-09-06T14:44:33.166Z,7.47
2018-09-06T14:47:07.501Z,8.40
2018-09-06T14:49:41.785Z,8.40
2018-09-06T14:52:16.155Z,8.23
2018-09-06T14:54:50.423Z,8.10
2018-09-06T14:57:24.682Z,7.97
2018-09-06T14:59:58.895Z,7.60
2018-09-06T15:02:33.336Z,7.93
2018-09-06T15:05:07.561Z,8.23
2018-09-06T15:07:41.826Z,7.73
2018-09-06T15:10:16.119Z,7.20
2018-09-06T15:12:50.457Z,7.63
2018-09-06T15:15:24.740Z,7.60
2018-09-06T15:17:59.193Z,7.60
2018-09-06T15:20:34.190Z,7.03
2018-09-06T15:23:08.410Z,7.17
2018-09-06T15:25:42.776Z,8.33
2018-09-06T15:28:17.152Z,7.00
2018-09-06T15:30:51.594Z,7.70
2018-09-06T15:33:25.875Z,7.50
2018-09-06T15:36:00.152Z,7.07
2018-09-06T15:38:34.523Z,7.43
2018-09-06T15:41:08.837Z,7.60
2018-09-06T15:43:43.266Z,7.17
2018-09-06T15:46:17.540Z,7.37
2018-09-06T15:48:51.985Z,7.27
2018-09-06T15:51:26.310Z,7.03
2018-09-06T15:54:00.555Z,6.90
2018-09-06T15:56:34.952Z,7.93
2018-09-06T15:59:09.274Z,7.73
2018-09-06T16:01:43.741Z,7.87
2018-09-06T16:04:18.214Z,7.30
2018-09-06T16:06:52.794Z,8.00
2018-09-06T16:09:27.174Z,8.27
2018-09-06T16:12:01.414Z,6.90
2018-09-06T16:14:35.644Z,7.60
2018-09-06T16:17:09.864Z,6.93
2018-09-06T16:19:44.199Z,7.20
2018-09-06T16:22:18.496Z,8.50
2018-09-06T16:24:52.832Z,7.27
2018-09-06T16:27:27.067Z,8.30
2018-09-06T16:30:01.313Z,8.23
2018-09-06T16:32:35.601Z,8.70
2018-09-06T16:35:09.843Z,8.57
2018-09-06T16:37:44.211Z,8.70
2018-09-06T16:40:18.444Z,8.67
2018-09-06T16:42:52.650Z,8.90
2018-09-06T16:45:26.993Z,8.63
2018-09-06T16:48:01.278Z,8.23
2018-09-06T16:50:36.226Z,8.30
2018-09-06T16:53:10.611Z,7.20
2018-09-06T16:55:45.007Z,5.13
2018-09-06T16:58:19.250Z,5.70
2018-09-06T17:00:53.743Z,5.50
2018-09-06T17:03:27.938Z,4.60
2018-09-06T17:06:02.241Z,4.40
2018-09-06T17:08:36.574Z,3.60
2018-09-06T17:11:10.846Z,3.87
2018-09-06T17:13:45.075Z,3.30
2018-09-06T17:16:22.137Z,3.20
2018-09-06T17:18:56.602Z,3.37
2018-09-06T17:21:31.072Z,3.43
2018-09-06T17:24:05.340Z,3.80
2018-09-06T17:26:39.679Z,4.50
2018-09-06T17:29:13.871Z,4.53
2018-09-06T17:31:48.169Z,4.00
2018-09-06T17:34:22.430Z,3.90
2018-09-06T17:36:56.910Z,4.13
2018-09-06T17:39:31.324Z,4.10
2018-09-06T17:42:05.821Z,4.17
2018-09-06T17:44:40.258Z,4.40
2018-09-06T17:47:14.581Z,4.60
2018-09-06T17:49:49.349Z,5.47
2018-09-06T17:52:23.606Z,5.27
2018-09-06T17:54:58.051Z,5.13
2018-09-06T17:57:32.369Z,4.90
2018-09-06T18:00:06.949Z,5.40
2018-09-06T18:02:41.307Z,5.10
2018-09-06T18:05:15.534Z,5.53
2018-09-06T18:07:50.421Z,5.33
2018-09-06T18:10:24.811Z,5.40
2018-09-06T18:12:59.174Z,5.63
2018-09-06T18:15:33.571Z,5.63
2018-09-06T18:18:08.201Z,5.80
2018-09-06T18:20:42.791Z,5.30
2018-09-06T18:23:17.435Z,5.40
2018-09-06T18:25:51.818Z,5.17
2018-09-06T18:28:29.233Z,5.03
2018-09-06T18:31:03.528Z,5.20
2018-09-06T18:33:37.843Z,5.80
2018-09-06T18:36:12.147Z,5.00
2018-09-06T18:38:47.116Z,5.57
2018-09-06T18:41:21.550Z,6.33
2018-09-06T18:43:55.885Z,5.63
2018-09-06T18:46:30.187Z,5.37
2018-09-06T18:49:04.453Z,5.20
2018-09-06T18:51:38.834Z,5.33
2018-09-06T18:54:13.066Z,5.37
2018-09-06T18:56:47.270Z,5.33
2018-09-06T18:59:21.781Z,5.00
2018-09-06T19:01:56.089Z,5.00
2018-09-06T19:04:30.416Z,5.67
2018-09-06T19:07:04.692Z,6.30
2018-09-06T19:09:38.963Z,5.80
2018-09-06T19:12:13.237Z,5.67
2018-09-06T19:14:47.560Z,6.07
2018-09-06T19:17:21.843Z,6.10
2018-09-06T19:19:56.122Z,6.73
2018-09-06T19:22:30.526Z,7.80
2018-09-06T19:25:04.911Z,10.57
2018-09-06T19:27:39.284Z,12.40
2018-09-06T19:30:13.626Z,12.50
2018-09-06T19:32:47.884Z,12.17
2018-09-06T19:35:22.123Z,13.90
2018-09-06T19:37:56.779Z,13.50
2018-09-06T19:40:32.083Z,12.87
2018-09-06T19:43:06.546Z,12.27
2018-09-06T19:45:40.864Z,14.70
2018-09-06T19:48:15.226Z,13.67
2018-09-06T19:50:49.591Z,13.63
2018-09-06T19:53:24.020Z,14.37
2018-09-06T19:55:58.395Z,15.60
2018-09-06T19:58:32.894Z,13.50
2018-09-06T20:01:07.315Z,12.20
2018-09-06T20:03:41.691Z,12.87
2018-09-06T20:06:15.994Z,11.33
2018-09-06T20:08:50.276Z,11.83
2018-09-06T20:11:24.470Z,11.67
2018-09-06T20:13:58.785Z,11.40
2018-09-06T20:16:32.991Z,10.80
2018-09-06T20:19:07.483Z,11.27
2018-09-06T20:21:41.896Z,12.47
2018-09-06T20:24:16.399Z,12.97
2018-09-06T20:26:50.641Z,12.33
2018-09-06T20:29:25.025Z,12.60
2018-09-06T20:31:59.379Z,11.50
2018-09-06T20:34:33.702Z,10.17
2018-09-06T20:37:08.060Z,13.60
2018-09-06T20:39:42.488Z,13.77
2018-09-06T20:42:17.203Z,15.20
2018-09-06T20:44:52.526Z,16.90
2018-09-06T20:47:26.916Z,17.67
2018-09-06T20:50:01.270Z,16.43
2018-09-06T20:52:35.861Z,15.40
2018-09-06T20:55:10.128Z,15.77
2018-09-06T20:57:44.518Z,15.70
2018-09-06T21:00:19.049Z,14.93
2018-09-06T21:02:53.283Z,15.00
2018-09-06T21:05:27.662Z,14.57
2018-09-06T21:08:02.437Z,14.40
2018-09-06T21:10:36.893Z,14.60
2018-09-06T21:13:11.740Z,15.80
2018-09-06T21:15:46.750Z,16.50
2018-09-06T21:18:21.232Z,16.57
2018-09-06T21:20:55.508Z,16.90
2018-09-06T21:23:30.470Z,17.80
2018-09-06T21:26:04.897Z,16.63
2018-09-06T21:28:39.208Z,15.93
2018-09-06T21:31:13.659Z,15.57
2018-09-06T21:33:48.046Z,17.07
2018-09-06T21:36:22.417Z,17.87
2018-09-06T21:38:57.008Z,17.00
2018-09-06T21:41:31.454Z,16.70
2018-09-06T21:44:06.343Z,16.93
2018-09-06T21:46:41.305Z,15.93
2018-09-06T21:49:15.518Z,16.93
2018-09-06T21:51:50.050Z,17.03
2018-09-06T21:54:24.375Z,17.30
2018-09-06T21:56:58.706Z,17.33
2018-09-06T21:59:33.031Z,17.90
2018-09-06T22:02:10.627Z,17.73
2018-09-06T22:04:44.923Z,17.07
2018-09-06T22:07:19.286Z,16.07
2018-09-06T22:09:53.648Z,16.03
2018-09-06T22:12:27.895Z,15.97
2018-09-06T22:15:03.312Z,16.13
2018-09-06T22:17:37.645Z,15.87
2018-09-06T22:20:12.079Z,15.67
2018-09-06T22:22:46.386Z,15.47
2018-09-06T22:25:20.634Z,14.93
2018-09-06T22:27:54.888Z,15.70
2018-09-06T22:30:29.197Z,15.83
2018-09-06T22:33:03.541Z,16.43
2018-09-06T22:35:37.939Z,15.83
2018-09-06T22:38:12.411Z,17.60
2018-09-06T22:40:46.767Z,18.27
2018-09-06T22:43:21.209Z,19.87
2018-09-06T22:45:55.471Z,20.93
2018-09-06T22:48:30.001Z,22.67
2018-09-06T22:51:04.632Z,23.43
2018-09-06T22:53:39.060Z,24.27
2018-09-06T22:56:45.076Z,25.70
2018-09-06T22:59:19.509Z,27.13
2018-09-06T23:01:53.780Z,26.13
2018-09-06T23:04:28.242Z,26.20
2018-09-06T23:07:02.638Z,24.30
2018-09-06T23:09:37.184Z,24.87
2018-09-06T23:12:11.489Z,23.00
2018-09-06T23:14:45.824Z,22.30
2018-09-06T23:17:20.210Z,22.10
2018-09-06T23:19:54.468Z,20.87
2018-09-06T23:22:28.730Z,19.63
2018-09-06T23:25:03.126Z,21.33
2018-09-06T23:27:37.393Z,20.50
2018-09-06T23:30:11.921Z,19.20
2018-09-06T23:32:46.343Z,20.87
2018-09-06T23:35:20.576Z,21.27
2018-09-06T23:37:54.941Z,20.13
2018-09-06T23:40:32.869Z,21.10
2018-09-06T23:43:07.586Z,20.20
2018-09-06T23:45:42.133Z,21.87
2018-09-06T23:48:16.754Z,22.93
2018-09-06T23:50:51.299Z,22.10
2018-09-06T23:53:26.432Z,23.57
2018-09-06T23:56:00.884Z,23.30
2018-09-06T23:58:35.217Z,24.97
